ADDS METAR Data INFO
IDs: Format: Raw Decoded Include TAF

Data at: 2124 UTC 21 Nov 2017

METAR for:KZZV (Zanesville Muni, OH, US)
Text:KZZV 212053Z AUTO 20010G16KT 10SM CLR 13/M01 A2991 RMK AO2 SLP129 T01331006 56004
Temperature: 13.3°C ( 56°F)
Dewpoint: -0.6°C ( 31°F) [RH = 38%]
Pressure (altimeter):29.91 inches Hg (1013.0 mb) [Sea level pressure: 1012.9 mb]
Winds:from the SSW (200 degrees) at 12 MPH (10 knots; 5.1 m/s) gusting to 18 MPH (16 knots; 8.2 m/s)
Visibility:10 or more sm (16+ km)
Ceiling:at least 12,000 feet AGL
Clouds:sky clear below 12,000 feet AGL
QC Flag:automated observation with no human augmentation